CES201 ZSPD-EGKK
Flight info
| Callsign | CES201 |
|---|---|
| Flight time | N/A |
| Altitude | 34000 |
| Route | PIK83D PIKAS G330 PIMOL A593 DALIM W157 BEKDO/K0928S1010 W157 VYK G212 SOTMU/K0919S1040 B339 POLHO Y520 SERNA/K0922F340 R497 UTIMA/K0909F360 R497 TODES B228 HMN L870 AGDON/K0909F380 L870 RANVA/N0488F380 L870 RESMO DCT TODNA DCT DEREX DCT KOTAM DCT ALASA DCT KUTXO N125 BLUFA DCT GALSO Q63 ARREK Y4 TEBRA |
| Aircraft | A359/H-SDE2E3GHIJ3J4J5LM1ORWXY/LB1D1 |
Departure
| Time | 2026-05-05 07:24 |
|---|---|
| Airport | Shanghai Pudong International Airport (ZSPD) |
Arrival
| Time | N/A |
|---|---|
| Airport | London Gatwick Airport (EGKK) |
| Time | Latitude | Longitude | Altitude | Speed | Heading |
|---|---|---|---|---|---|
| 2026-05-05 06:23 | 31.13860 | 121.80124 | 56 ft | 0 kts | 72° |
| 2026-05-05 07:05 | 31.13858 | 121.80117 | 29 ft | 4 kts | 72° |
| 2026-05-05 07:05 | 31.13849 | 121.80087 | 28 ft | 4 kts | 72° |
| 2026-05-05 07:05 | 31.13843 | 121.80062 | 27 ft | 3 kts | 71° |
| 2026-05-05 07:06 | 31.13831 | 121.80037 | 27 ft | 4 kts | 36° |
| 2026-05-05 07:06 | 31.13808 | 121.80029 | 27 ft | 4 kts | 344° |
| 2026-05-05 07:06 | 31.13786 | 121.80037 | 28 ft | 2 kts | 342° |
| 2026-05-05 07:06 | 31.13784 | 121.80038 | 28 ft | 0 kts | 342° |
| 2026-05-05 07:12 | 31.13791 | 121.80035 | 28 ft | 5 kts | 343° |
| 2026-05-05 07:12 | 31.13832 | 121.80020 | 27 ft | 6 kts | 341° |
| 2026-05-05 07:12 | 31.13876 | 121.80003 | 29 ft | 8 kts | 342° |
| 2026-05-05 07:13 | 31.13930 | 121.79983 | 29 ft | 9 kts | 342° |
| 2026-05-05 07:13 | 31.13989 | 121.79961 | 29 ft | 9 kts | 342° |
| 2026-05-05 07:13 | 31.14083 | 121.79926 | 29 ft | 20 kts | 342° |
| 2026-05-05 07:13 | 31.14164 | 121.79865 | 29 ft | 12 kts | 288° |
| 2026-05-05 07:14 | 31.14150 | 121.79777 | 29 ft | 11 kts | 252° |
| 2026-05-05 07:14 | 31.14133 | 121.79694 | 29 ft | 9 kts | 279° |
| 2026-05-05 07:14 | 31.14175 | 121.79658 | 29 ft | 7 kts | 346° |
| 2026-05-05 07:14 | 31.14196 | 121.79653 | 29 ft | 0 kts | 346° |
| 2026-05-05 07:18 | 31.14241 | 121.79639 | 29 ft | 11 kts | 344° |
| 2026-05-05 07:18 | 31.14312 | 121.79612 | 29 ft | 11 kts | 342° |
| 2026-05-05 07:18 | 31.14385 | 121.79585 | 29 ft | 11 kts | 342° |
| 2026-05-05 07:18 | 31.14458 | 121.79556 | 29 ft | 11 kts | 341° |
| 2026-05-05 07:19 | 31.14542 | 121.79524 | 29 ft | 14 kts | 342° |
| 2026-05-05 07:19 | 31.14648 | 121.79484 | 29 ft | 18 kts | 342° |
| 2026-05-05 07:19 | 31.14770 | 121.79438 | 29 ft | 18 kts | 342° |
| 2026-05-05 07:19 | 31.14891 | 121.79394 | 29 ft | 18 kts | 342° |
| 2026-05-05 07:20 | 31.15010 | 121.79349 | 29 ft | 18 kts | 342° |
| 2026-05-05 07:20 | 31.15127 | 121.79304 | 29 ft | 17 kts | 342° |
| 2026-05-05 07:20 | 31.15245 | 121.79259 | 29 ft | 20 kts | 342° |
| 2026-05-05 07:20 | 31.15374 | 121.79210 | 29 ft | 19 kts | 342° |
| 2026-05-05 07:21 | 31.15499 | 121.79162 | 29 ft | 19 kts | 342° |
| 2026-05-05 07:21 | 31.15625 | 121.79115 | 29 ft | 19 kts | 342° |
| 2026-05-05 07:21 | 31.15747 | 121.79070 | 29 ft | 18 kts | 342° |
| 2026-05-05 07:21 | 31.15867 | 121.79025 | 29 ft | 18 kts | 342° |
| 2026-05-05 07:22 | 31.15984 | 121.78981 | 29 ft | 18 kts | 342° |
| 2026-05-05 07:22 | 31.16100 | 121.78938 | 29 ft | 17 kts | 342° |
| 2026-05-05 07:22 | 31.16168 | 121.78898 | 29 ft | 8 kts | 301° |
| 2026-05-05 07:22 | 31.16166 | 121.78820 | 29 ft | 15 kts | 255° |
| 2026-05-05 07:23 | 31.16140 | 121.78718 | 29 ft | 12 kts | 251° |
| 2026-05-05 07:23 | 31.16094 | 121.78633 | 28 ft | 13 kts | 202° |
| 2026-05-05 07:23 | 31.15980 | 121.78654 | 28 ft | 28 kts | 162° |
| 2026-05-05 07:23 | 31.15633 | 121.78785 | 28 ft | 76 kts | 163° |
| 2026-05-05 07:24 | 31.14983 | 121.79030 | 30 ft | 118 kts | 162° |
| 2026-05-05 07:24 | 31.14079 | 121.79370 | 26 ft | 155 kts | 162° |
| 2026-05-05 07:24 | 31.12992 | 121.79775 | 271 ft | 167 kts | 163° |
| 2026-05-05 07:24 | 31.11924 | 121.80179 | 800 ft | 157 kts | 160° |
| 2026-05-05 07:25 | 31.10867 | 121.80548 | 1186 ft | 161 kts | 165° |
| 2026-05-05 07:25 | 31.09736 | 121.80918 | 1430 ft | 177 kts | 166° |
| 2026-05-05 07:25 | 31.08496 | 121.81323 | 1682 ft | 193 kts | 165° |
| 2026-05-05 07:25 | 31.07153 | 121.81758 | 1956 ft | 207 kts | 165° |
| 2026-05-05 07:26 | 31.05739 | 121.82238 | 2096 ft | 223 kts | 165° |
| 2026-05-05 07:26 | 31.04189 | 121.82762 | 2310 ft | 239 kts | 165° |
| 2026-05-05 07:26 | 31.02561 | 121.83301 | 2707 ft | 245 kts | 166° |
| 2026-05-05 07:26 | 31.00906 | 121.83859 | 3150 ft | 249 kts | 166° |
| 2026-05-05 07:27 | 30.99257 | 121.84502 | 3603 ft | 253 kts | 159° |
| 2026-05-05 07:27 | 30.98218 | 121.85142 | 3838 ft | 257 kts | 148° |
| 2026-05-05 07:27 | 30.96942 | 121.86618 | 4183 ft | 264 kts | 124° |
| 2026-05-05 07:27 | 30.96349 | 121.88647 | 4624 ft | 270 kts | 95° |
| 2026-05-05 07:28 | 30.96704 | 121.90794 | 5078 ft | 275 kts | 64° |
| 2026-05-05 07:28 | 30.97962 | 121.92467 | 5500 ft | 279 kts | 32° |
| 2026-05-05 07:28 | 31.00432 | 121.93300 | 6154 ft | 279 kts | 8° |
| 2026-05-05 07:28 | 31.01658 | 121.93760 | 6430 ft | 280 kts | 27° |
| 2026-05-05 07:29 | 31.03401 | 121.94772 | 6979 ft | 279 kts | 25° |
| 2026-05-05 07:29 | 31.05170 | 121.95742 | 7466 ft | 282 kts | 23° |
| 2026-05-05 07:29 | 31.06961 | 121.96644 | 7955 ft | 285 kts | 21° |
| 2026-05-05 07:29 | 31.08839 | 121.97492 | 8462 ft | 287 kts | 18° |
| 2026-05-05 07:30 | 31.10740 | 121.98101 | 8947 ft | 288 kts | 6° |
| 2026-05-05 07:30 | 31.14533 | 121.97143 | 9935 ft | 284 kts | 320° |
| 2026-05-05 07:30 | 31.16015 | 121.95598 | 10288 ft | 291 kts | 313° |
| 2026-05-05 07:31 | 31.17470 | 121.93877 | 10493 ft | 303 kts | 312° |
| 2026-05-05 07:31 | 31.18952 | 121.92054 | 10709 ft | 315 kts | 309° |
| 2026-05-05 07:31 | 31.20267 | 121.89947 | 10895 ft | 327 kts | 303° |
| 2026-05-05 07:31 | 31.21519 | 121.87671 | 11090 ft | 339 kts | 301° |
| 2026-05-05 07:32 | 31.22740 | 121.85308 | 11287 ft | 350 kts | 300° |
| 2026-05-05 07:32 | 31.23990 | 121.82806 | 11480 ft | 360 kts | 299° |
| 2026-05-05 07:32 | 31.25249 | 121.80256 | 11911 ft | 363 kts | 298° |
| 2026-05-05 07:32 | 31.26517 | 121.77685 | 12289 ft | 367 kts | 299° |
| 2026-05-05 07:33 | 31.27800 | 121.75091 | 12774 ft | 369 kts | 299° |
| 2026-05-05 07:33 | 31.29094 | 121.72483 | 13209 ft | 372 kts | 299° |
| 2026-05-05 07:33 | 31.30399 | 121.69861 | 13632 ft | 374 kts | 299° |
| 2026-05-05 07:33 | 31.31714 | 121.67222 | 14034 ft | 376 kts | 299° |
| 2026-05-05 07:34 | 31.33037 | 121.64569 | 14417 ft | 379 kts | 299° |
| 2026-05-05 07:34 | 31.34351 | 121.61930 | 14788 ft | 381 kts | 299° |
| 2026-05-05 07:34 | 31.35688 | 121.59241 | 15169 ft | 383 kts | 299° |
| 2026-05-05 07:34 | 31.37031 | 121.56543 | 15570 ft | 385 kts | 299° |
| 2026-05-05 07:35 | 31.38382 | 121.53827 | 15964 ft | 387 kts | 299° |
| 2026-05-05 07:35 | 31.39743 | 121.51087 | 16363 ft | 389 kts | 298° |
| 2026-05-05 07:35 | 31.41109 | 121.48334 | 16762 ft | 391 kts | 298° |
| 2026-05-05 07:35 | 31.42478 | 121.45572 | 17173 ft | 394 kts | 298° |
| 2026-05-05 07:36 | 31.43858 | 121.42786 | 17585 ft | 396 kts | 298° |
| 2026-05-05 07:36 | 31.45228 | 121.40019 | 17961 ft | 398 kts | 298° |
| 2026-05-05 07:36 | 31.46591 | 121.37264 | 18353 ft | 400 kts | 298° |
| 2026-05-05 07:36 | 31.47991 | 121.34431 | 18686 ft | 402 kts | 298° |
| 2026-05-05 07:37 | 31.49397 | 121.31584 | 19025 ft | 404 kts | 298° |
| 2026-05-05 07:37 | 31.50811 | 121.28720 | 19362 ft | 406 kts | 298° |
| 2026-05-05 07:37 | 31.52230 | 121.25843 | 19700 ft | 409 kts | 298° |
| 2026-05-05 07:37 | 31.53656 | 121.22949 | 20067 ft | 410 kts | 298° |
| 2026-05-05 07:38 | 31.55085 | 121.20046 | 20418 ft | 412 kts | 298° |
| 2026-05-05 07:38 | 31.56523 | 121.17122 | 20769 ft | 415 kts | 298° |
| 2026-05-05 07:38 | 31.57953 | 121.14214 | 21122 ft | 417 kts | 298° |
| 2026-05-05 07:38 | 31.59405 | 121.11260 | 21485 ft | 419 kts | 298° |
| 2026-05-05 07:39 | 31.60863 | 121.08292 | 21844 ft | 422 kts | 298° |
| 2026-05-05 07:39 | 31.62332 | 121.05300 | 22206 ft | 424 kts | 298° |
| 2026-05-05 07:39 | 31.63807 | 121.02292 | 22571 ft | 426 kts | 298° |
| 2026-05-05 07:39 | 31.65289 | 120.99267 | 22919 ft | 429 kts | 298° |
| 2026-05-05 07:40 | 31.66777 | 120.96227 | 23269 ft | 431 kts | 298° |
| 2026-05-05 07:40 | 31.68278 | 120.93156 | 23597 ft | 434 kts | 299° |
| 2026-05-05 07:40 | 31.69788 | 120.90065 | 23891 ft | 436 kts | 299° |
| 2026-05-05 07:40 | 31.71298 | 120.86971 | 24218 ft | 437 kts | 298° |
| 2026-05-05 07:41 | 31.72813 | 120.83863 | 24555 ft | 438 kts | 298° |
| 2026-05-05 07:41 | 31.74313 | 120.80786 | 24855 ft | 440 kts | 298° |
| 2026-05-05 07:41 | 31.75839 | 120.77654 | 25160 ft | 442 kts | 298° |
| 2026-05-05 07:41 | 31.77368 | 120.74511 | 25453 ft | 443 kts | 298° |
| 2026-05-05 07:42 | 31.78901 | 120.71361 | 25744 ft | 445 kts | 298° |
| 2026-05-05 07:42 | 31.80442 | 120.68190 | 26030 ft | 447 kts | 298° |
| 2026-05-05 07:42 | 31.81987 | 120.65005 | 26331 ft | 448 kts | 298° |
| 2026-05-05 07:42 | 31.83514 | 120.61857 | 26607 ft | 450 kts | 298° |
| 2026-05-05 07:43 | 31.85065 | 120.58654 | 26882 ft | 451 kts | 298° |
| 2026-05-05 07:43 | 31.86621 | 120.55442 | 27158 ft | 453 kts | 298° |
| 2026-05-05 07:43 | 31.88184 | 120.52209 | 27433 ft | 455 kts | 298° |
| 2026-05-05 07:43 | 31.89752 | 120.48964 | 27706 ft | 456 kts | 298° |
| 2026-05-05 07:44 | 31.91321 | 120.45715 | 27973 ft | 458 kts | 298° |
| 2026-05-05 07:44 | 31.92898 | 120.42447 | 28230 ft | 460 kts | 298° |
| 2026-05-05 07:44 | 31.94477 | 120.39170 | 28498 ft | 461 kts | 298° |
| 2026-05-05 07:44 | 31.96062 | 120.35880 | 28723 ft | 463 kts | 298° |
| 2026-05-05 07:45 | 31.97652 | 120.32576 | 28964 ft | 464 kts | 298° |
| 2026-05-05 07:45 | 31.99249 | 120.29255 | 29202 ft | 466 kts | 298° |
| 2026-05-05 07:45 | 32.00849 | 120.25925 | 29413 ft | 467 kts | 298° |
| 2026-05-05 07:45 | 32.02452 | 120.22583 | 29655 ft | 469 kts | 298° |
| 2026-05-05 07:46 | 32.04057 | 120.19236 | 29854 ft | 470 kts | 298° |
| 2026-05-05 07:46 | 32.05669 | 120.15871 | 30052 ft | 472 kts | 298° |
| 2026-05-05 07:46 | 32.07285 | 120.12495 | 30219 ft | 473 kts | 298° |
| 2026-05-05 07:46 | 32.08905 | 120.09106 | 30399 ft | 474 kts | 298° |
| 2026-05-05 07:47 | 32.10521 | 120.05724 | 30656 ft | 472 kts | 298° |
| 2026-05-05 07:47 | 32.12110 | 120.02396 | 30891 ft | 471 kts | 298° |
| 2026-05-05 07:47 | 32.13719 | 119.99021 | 31097 ft | 471 kts | 298° |
| 2026-05-05 07:47 | 32.15324 | 119.95651 | 31310 ft | 471 kts | 298° |
| 2026-05-05 07:48 | 32.16930 | 119.92278 | 31501 ft | 470 kts | 298° |
| 2026-05-05 07:48 | 32.18532 | 119.88909 | 31714 ft | 470 kts | 298° |
| 2026-05-05 07:48 | 32.20128 | 119.85550 | 31892 ft | 469 kts | 298° |
| 2026-05-05 07:48 | 32.21728 | 119.82179 | 32087 ft | 469 kts | 298° |
| 2026-05-05 07:49 | 32.23462 | 119.78912 | 32215 ft | 470 kts | 305° |
| 2026-05-05 07:49 | 32.25550 | 119.75933 | 32389 ft | 471 kts | 313° |
| 2026-05-05 07:49 | 32.27952 | 119.73287 | 32565 ft | 471 kts | 318° |
| 2026-05-05 07:49 | 32.30479 | 119.70905 | 32734 ft | 472 kts | 321° |
| 2026-05-05 07:50 | 32.33140 | 119.68608 | 32860 ft | 472 kts | 323° |
| 2026-05-05 07:50 | 32.35835 | 119.66367 | 32991 ft | 472 kts | 323° |
| 2026-05-05 07:50 | 32.38531 | 119.64143 | 33136 ft | 472 kts | 323° |
| 2026-05-05 07:50 | 32.41219 | 119.61910 | 33279 ft | 472 kts | 323° |
| 2026-05-05 07:51 | 32.43890 | 119.59667 | 33419 ft | 471 kts | 322° |
| 2026-05-05 07:51 | 32.46528 | 119.57431 | 33553 ft | 471 kts | 322° |
| 2026-05-05 07:51 | 32.49186 | 119.55165 | 33668 ft | 471 kts | 322° |
| 2026-05-05 07:51 | 32.51839 | 119.52878 | 33810 ft | 471 kts | 322° |
| 2026-05-05 07:52 | 32.54482 | 119.50589 | 33930 ft | 471 kts | 322° |
| 2026-05-05 07:52 | 32.57134 | 119.48285 | 33944 ft | 473 kts | 322° |
| 2026-05-05 07:52 | 32.62461 | 119.43659 | 33938 ft | 474 kts | 322° |
| 2026-05-05 07:53 | 32.67752 | 119.39069 | 33939 ft | 473 kts | 322° |
| 2026-05-05 07:53 | 32.73069 | 119.34454 | 33936 ft | 473 kts | 322° |
| 2026-05-05 07:54 | 32.78387 | 119.29831 | 33938 ft | 473 kts | 322° |
| 2026-05-05 07:54 | 32.83699 | 119.25205 | 33935 ft | 473 kts | 322° |
| 2026-05-05 07:55 | 32.89006 | 119.20578 | 33931 ft | 472 kts | 323° |
| 2026-05-05 07:55 | 32.94268 | 119.15983 | 33929 ft | 471 kts | 323° |
| 2026-05-05 07:56 | 32.99575 | 119.11401 | 33923 ft | 471 kts | 323° |
| 2026-05-05 07:56 | 33.04897 | 119.06823 | 33920 ft | 471 kts | 323° |
| 2026-05-05 07:57 | 33.10211 | 119.02243 | 33922 ft | 471 kts | 323° |
| 2026-05-05 07:57 | 33.15523 | 118.97653 | 33921 ft | 471 kts | 323° |
| 2026-05-05 07:58 | 33.20799 | 118.93090 | 33911 ft | 469 kts | 324° |
| 2026-05-05 07:58 | 33.26066 | 118.88510 | 33909 ft | 468 kts | 323° |
| 2026-05-05 07:59 | 33.31322 | 118.83905 | 33903 ft | 468 kts | 323° |
| 2026-05-05 07:59 | 33.36589 | 118.79331 | 33903 ft | 468 kts | 324° |
| 2026-05-05 08:00 | 33.41860 | 118.74764 | 33900 ft | 468 kts | 324° |
| 2026-05-05 08:00 | 33.47134 | 118.70189 | 33901 ft | 468 kts | 324° |
| 2026-05-05 08:01 | 33.52412 | 118.65619 | 33887 ft | 468 kts | 324° |
| 2026-05-05 08:01 | 33.57652 | 118.61073 | 33889 ft | 467 kts | 324° |
| 2026-05-05 08:02 | 33.62926 | 118.56489 | 33889 ft | 467 kts | 324° |
| 2026-05-05 08:02 | 33.68164 | 118.51930 | 33882 ft | 467 kts | 324° |
| 2026-05-05 08:03 | 33.73435 | 118.47335 | 33881 ft | 467 kts | 324° |
| 2026-05-05 08:03 | 33.78700 | 118.42737 | 33874 ft | 467 kts | 324° |
| 2026-05-05 08:04 | 33.83948 | 118.38149 | 33874 ft | 466 kts | 324° |
| 2026-05-05 08:04 | 33.89171 | 118.33576 | 33872 ft | 466 kts | 324° |
| 2026-05-05 08:05 | 33.94411 | 118.28979 | 33868 ft | 465 kts | 324° |
| 2026-05-05 08:05 | 33.99649 | 118.24386 | 33867 ft | 465 kts | 325° |
| 2026-05-05 08:06 | 34.04908 | 118.19809 | 33870 ft | 466 kts | 325° |
| 2026-05-05 08:06 | 34.10133 | 118.15263 | 33862 ft | 465 kts | 325° |
| 2026-05-05 08:07 | 34.15377 | 118.10701 | 33859 ft | 464 kts | 325° |
| 2026-05-05 08:07 | 34.20628 | 118.06122 | 33850 ft | 464 kts | 325° |
| 2026-05-05 08:08 | 34.25907 | 118.01627 | 33854 ft | 462 kts | 330° |
| 2026-05-05 08:08 | 34.31715 | 117.98485 | 33854 ft | 461 kts | 341° |
| 2026-05-05 08:09 | 34.37842 | 117.96177 | 33854 ft | 460 kts | 343° |
| 2026-05-05 08:09 | 34.43980 | 117.94019 | 33854 ft | 459 kts | 343° |
| 2026-05-05 08:10 | 34.50115 | 117.91859 | 33854 ft | 459 kts | 343° |
| 2026-05-05 08:10 | 34.56217 | 117.89684 | 33850 ft | 459 kts | 343° |
| 2026-05-05 08:11 | 34.62347 | 117.87486 | 33850 ft | 458 kts | 343° |
| 2026-05-05 08:11 | 34.68471 | 117.85284 | 33850 ft | 458 kts | 343° |
| 2026-05-05 08:12 | 34.74548 | 117.83097 | 33845 ft | 458 kts | 343° |
| 2026-05-05 08:12 | 34.80659 | 117.80894 | 33845 ft | 458 kts | 343° |
| 2026-05-05 08:13 | 34.86769 | 117.78677 | 33846 ft | 457 kts | 343° |
| 2026-05-05 08:13 | 34.92869 | 117.76441 | 33845 ft | 456 kts | 343° |
| 2026-05-05 08:14 | 34.98954 | 117.74207 | 33848 ft | 456 kts | 343° |
| 2026-05-05 08:14 | 35.04999 | 117.71990 | 33842 ft | 456 kts | 343° |
| 2026-05-05 08:15 | 35.11091 | 117.69763 | 33843 ft | 456 kts | 343° |
| 2026-05-05 08:15 | 35.17185 | 117.67527 | 33842 ft | 456 kts | 343° |
| 2026-05-05 08:16 | 35.23234 | 117.65301 | 33837 ft | 456 kts | 343° |
| 2026-05-05 08:16 | 35.29318 | 117.63062 | 33838 ft | 456 kts | 343° |
| 2026-05-05 08:17 | 35.35407 | 117.60817 | 33837 ft | 457 kts | 342° |
| 2026-05-05 08:17 | 35.40473 | 117.58947 | 33829 ft | 457 kts | 342° |
| 2026-05-05 08:18 | 35.46565 | 117.56694 | 33832 ft | 457 kts | 342° |
| 2026-05-05 08:18 | 35.52655 | 117.54441 | 33832 ft | 457 kts | 342° |
| 2026-05-05 08:19 | 35.58747 | 117.52181 | 33827 ft | 457 kts | 342° |
| 2026-05-05 08:19 | 35.64841 | 117.49917 | 33823 ft | 457 kts | 342° |
| 2026-05-05 08:20 | 35.70900 | 117.47662 | 33823 ft | 457 kts | 342° |
| 2026-05-05 08:20 | 35.76992 | 117.45392 | 33815 ft | 457 kts | 342° |
| 2026-05-05 08:21 | 35.83081 | 117.43120 | 33821 ft | 456 kts | 342° |
| 2026-05-05 08:21 | 35.89153 | 117.40850 | 33815 ft | 456 kts | 342° |
| 2026-05-05 08:22 | 35.95192 | 117.38589 | 33812 ft | 456 kts | 342° |
| 2026-05-05 08:22 | 36.01269 | 117.36312 | 33811 ft | 456 kts | 342° |
| 2026-05-05 08:23 | 36.07364 | 117.34057 | 33807 ft | 456 kts | 342° |
| 2026-05-05 08:23 | 36.13445 | 117.31814 | 33808 ft | 456 kts | 342° |
| 2026-05-05 08:24 | 36.19500 | 117.29575 | 33807 ft | 456 kts | 342° |
| 2026-05-05 08:24 | 36.25597 | 117.27315 | 33803 ft | 456 kts | 342° |
| 2026-05-05 08:25 | 36.31695 | 117.25048 | 33803 ft | 456 kts | 342° |
| 2026-05-05 08:25 | 36.37779 | 117.22784 | 33795 ft | 456 kts | 342° |
| 2026-05-05 08:26 | 36.43773 | 117.20220 | 33791 ft | 455 kts | 338° |
| 2026-05-05 08:26 | 36.49609 | 117.17257 | 33780 ft | 455 kts | 337° |
| 2026-05-05 08:27 | 36.55444 | 117.14214 | 33787 ft | 454 kts | 337° |
| 2026-05-05 08:27 | 36.61254 | 117.11176 | 33778 ft | 452 kts | 337° |
| 2026-05-05 08:28 | 36.67059 | 117.08142 | 33775 ft | 452 kts | 337° |
| 2026-05-05 08:28 | 36.72862 | 117.05108 | 33770 ft | 452 kts | 337° |
| 2026-05-05 08:29 | 36.78633 | 117.02088 | 33770 ft | 452 kts | 337° |
| 2026-05-05 08:30 | 36.87335 | 116.97524 | 33764 ft | 451 kts | 337° |
| 2026-05-05 08:30 | 36.93089 | 116.94500 | 33757 ft | 450 kts | 337° |
| 2026-05-05 08:31 | 36.98867 | 116.91458 | 33758 ft | 450 kts | 337° |
| 2026-05-05 08:31 | 37.04645 | 116.88411 | 33759 ft | 450 kts | 337° |
| 2026-05-05 08:32 | 37.10379 | 116.85383 | 33745 ft | 448 kts | 337° |
| 2026-05-05 08:32 | 37.16115 | 116.82348 | 33748 ft | 446 kts | 337° |
| 2026-05-05 08:33 | 37.21870 | 116.79427 | 33742 ft | 446 kts | 341° |
| 2026-05-05 08:33 | 37.27797 | 116.77076 | 33744 ft | 446 kts | 342° |
| 2026-05-05 08:34 | 37.33750 | 116.74823 | 33741 ft | 446 kts | 342° |
| 2026-05-05 08:34 | 37.39654 | 116.72605 | 33736 ft | 445 kts | 342° |
| 2026-05-05 08:35 | 37.45590 | 116.70364 | 33736 ft | 445 kts | 342° |
| 2026-05-05 08:35 | 37.51530 | 116.68111 | 33728 ft | 445 kts | 342° |
| 2026-05-05 08:36 | 37.57470 | 116.65853 | 33730 ft | 445 kts | 342° |
| 2026-05-05 08:36 | 37.63359 | 116.63611 | 33727 ft | 444 kts | 342° |
| 2026-05-05 08:37 | 37.69285 | 116.61351 | 33719 ft | 444 kts | 342° |
| 2026-05-05 08:37 | 37.75199 | 116.59092 | 33719 ft | 444 kts | 342° |
| 2026-05-05 08:38 | 37.81136 | 116.56821 | 33716 ft | 444 kts | 341° |
| 2026-05-05 08:38 | 37.87020 | 116.54566 | 33716 ft | 443 kts | 341° |
| 2026-05-05 08:39 | 37.92924 | 116.52299 | 33713 ft | 443 kts | 341° |
| 2026-05-05 08:39 | 37.98567 | 116.49262 | 33709 ft | 440 kts | 328° |
| 2026-05-05 08:40 | 38.03660 | 116.44931 | 33706 ft | 441 kts | 324° |
| 2026-05-05 08:40 | 38.08639 | 116.40368 | 33705 ft | 441 kts | 324° |
| 2026-05-05 08:41 | 38.13570 | 116.35799 | 33701 ft | 441 kts | 324° |
| 2026-05-05 08:41 | 38.18560 | 116.31261 | 33696 ft | 441 kts | 327° |
| 2026-05-05 08:42 | 38.24104 | 116.27929 | 33693 ft | 442 kts | 341° |
| 2026-05-05 08:42 | 38.30164 | 116.26753 | 33693 ft | 448 kts | 357° |
| 2026-05-05 08:43 | 38.36384 | 116.27914 | 33692 ft | 456 kts | 9° |
| 2026-05-05 08:43 | 38.42548 | 116.29991 | 33688 ft | 458 kts | 11° |
| 2026-05-05 08:44 | 38.48696 | 116.32181 | 33688 ft | 458 kts | 10° |
| 2026-05-05 08:44 | 38.54858 | 116.34348 | 33677 ft | 460 kts | 10° |
| 2026-05-05 08:45 | 38.61033 | 116.36491 | 33677 ft | 460 kts | 9° |
| 2026-05-05 08:45 | 38.67174 | 116.38622 | 33696 ft | 460 kts | 9° |
| 2026-05-05 08:46 | 38.73361 | 116.40795 | 33673 ft | 461 kts | 9° |
| 2026-05-05 08:46 | 38.79561 | 116.42980 | 33678 ft | 462 kts | 9° |
| 2026-05-05 08:47 | 38.85765 | 116.45171 | 33668 ft | 462 kts | 9° |
| 2026-05-05 08:47 | 38.91923 | 116.47347 | 33670 ft | 462 kts | 9° |
| 2026-05-05 08:48 | 38.98127 | 116.49544 | 33652 ft | 462 kts | 9° |
| 2026-05-05 08:48 | 39.04338 | 116.51747 | 33662 ft | 462 kts | 9° |
| 2026-05-05 08:49 | 39.10560 | 116.53959 | 33659 ft | 463 kts | 9° |
| 2026-05-05 08:49 | 39.16788 | 116.56176 | 33656 ft | 464 kts | 9° |
| 2026-05-05 08:50 | 39.22946 | 116.58487 | 33650 ft | 464 kts | 13° |
| 2026-05-05 08:50 | 39.29033 | 116.61362 | 33648 ft | 466 kts | 14° |
| 2026-05-05 08:51 | 39.35115 | 116.64338 | 33651 ft | 466 kts | 14° |
| 2026-05-05 08:51 | 39.41169 | 116.67222 | 33655 ft | 466 kts | 14° |
| 2026-05-05 08:52 | 39.47271 | 116.70079 | 33654 ft | 466 kts | 13° |
| 2026-05-05 08:52 | 39.53371 | 116.72927 | 33646 ft | 466 kts | 13° |
| 2026-05-05 08:53 | 39.59479 | 116.75786 | 33648 ft | 466 kts | 13° |
| 2026-05-05 08:53 | 39.65545 | 116.78635 | 33636 ft | 466 kts | 13° |
| 2026-05-05 08:54 | 39.71645 | 116.81505 | 33628 ft | 467 kts | 13° |
| 2026-05-05 08:54 | 39.77801 | 116.84030 | 33629 ft | 459 kts | 5° |
| 2026-05-05 08:55 | 39.84057 | 116.84498 | 33626 ft | 445 kts | 349° |
| 2026-05-05 08:55 | 39.90194 | 116.83482 | 33625 ft | 444 kts | 347° |
| 2026-05-05 08:56 | 39.96296 | 116.82236 | 33628 ft | 444 kts | 346° |
| 2026-05-05 08:56 | 40.02401 | 116.80973 | 33628 ft | 444 kts | 346° |
| 2026-05-05 08:57 | 40.08469 | 116.79743 | 33634 ft | 444 kts | 346° |
| 2026-05-05 08:57 | 40.14581 | 116.78518 | 33634 ft | 444 kts | 346° |
| 2026-05-05 08:58 | 40.20696 | 116.77293 | 33638 ft | 444 kts | 346° |
| 2026-05-05 08:58 | 40.26818 | 116.76063 | 33633 ft | 445 kts | 346° |
| 2026-05-05 08:59 | 40.32916 | 116.74695 | 33635 ft | 442 kts | 341° |
| 2026-05-05 08:59 | 40.38786 | 116.72507 | 33636 ft | 441 kts | 339° |
| 2026-05-05 09:00 | 40.44651 | 116.70151 | 33639 ft | 440 kts | 338° |
| 2026-05-05 09:00 | 40.50480 | 116.67769 | 33642 ft | 438 kts | 339° |
| 2026-05-05 09:01 | 40.56308 | 116.65399 | 33639 ft | 438 kts | 339° |
| 2026-05-05 09:01 | 40.62144 | 116.63028 | 33634 ft | 439 kts | 339° |
| 2026-05-05 09:02 | 40.67979 | 116.60653 | 33641 ft | 439 kts | 339° |
| 2026-05-05 09:02 | 40.73821 | 116.58273 | 33638 ft | 439 kts | 338° |
| 2026-05-05 09:03 | 40.79817 | 116.56563 | 33644 ft | 445 kts | 348° |
| 2026-05-05 09:03 | 40.84965 | 116.55937 | 33656 ft | 449 kts | 350° |
| 2026-05-05 09:04 | 40.92265 | 116.55260 | 33633 ft | 452 kts | 350° |
| 2026-05-05 09:04 | 40.97485 | 116.54801 | 33629 ft | 452 kts | 350° |
| 2026-05-05 09:05 | 41.04816 | 116.54131 | 33637 ft | 452 kts | 350° |
| 2026-05-05 09:05 | 41.10032 | 116.53648 | 33625 ft | 452 kts | 350° |
| 2026-05-05 09:06 | 41.16281 | 116.53064 | 33617 ft | 452 kts | 350° |
| 2026-05-05 09:06 | 41.23462 | 116.51723 | 33612 ft | 443 kts | 339° |
| 2026-05-05 09:07 | 41.28184 | 116.49128 | 33613 ft | 434 kts | 328° |
| 2026-05-05 09:07 | 41.33405 | 116.45186 | 33601 ft | 433 kts | 326° |
| 2026-05-05 09:08 | 41.38578 | 116.41057 | 33595 ft | 433 kts | 325° |
| 2026-05-05 09:08 | 41.43742 | 116.36924 | 33584 ft | 433 kts | 325° |
| 2026-05-05 09:09 | 41.48913 | 116.32806 | 33617 ft | 433 kts | 326° |
| 2026-05-05 09:09 | 41.54073 | 116.28703 | 33579 ft | 430 kts | 326° |
| 2026-05-05 09:10 | 41.59208 | 116.24611 | 33560 ft | 430 kts | 325° |
| 2026-05-05 09:10 | 41.64355 | 116.20505 | 33563 ft | 431 kts | 325° |
| 2026-05-05 09:11 | 41.69484 | 116.16403 | 33550 ft | 432 kts | 325° |
| 2026-05-05 09:11 | 41.74637 | 116.12270 | 33544 ft | 431 kts | 325° |
| 2026-05-05 09:12 | 41.79784 | 116.08137 | 33526 ft | 431 kts | 325° |
| 2026-05-05 09:12 | 41.84926 | 116.04004 | 33524 ft | 431 kts | 325° |
| 2026-05-05 09:13 | 41.90073 | 115.99858 | 33508 ft | 431 kts | 325° |
| 2026-05-05 09:13 | 41.95180 | 115.95737 | 33504 ft | 431 kts | 325° |
| 2026-05-05 09:14 | 42.00230 | 115.91409 | 33490 ft | 430 kts | 321° |
| 2026-05-05 09:14 | 42.05118 | 115.86772 | 33489 ft | 430 kts | 321° |
| 2026-05-05 09:15 | 42.10014 | 115.82122 | 33480 ft | 430 kts | 321° |
| 2026-05-05 09:15 | 42.14900 | 115.77553 | 33481 ft | 430 kts | 321° |
| 2026-05-05 09:16 | 42.19839 | 115.72961 | 33463 ft | 431 kts | 321° |
| 2026-05-05 09:16 | 42.24787 | 115.68354 | 33462 ft | 432 kts | 321° |
| 2026-05-05 09:17 | 42.29737 | 115.63743 | 33459 ft | 432 kts | 321° |
| 2026-05-05 09:17 | 42.34683 | 115.59115 | 33451 ft | 432 kts | 321° |
| 2026-05-05 09:18 | 42.39588 | 115.54517 | 33440 ft | 431 kts | 321° |
| 2026-05-05 09:18 | 42.44522 | 115.49885 | 33443 ft | 431 kts | 321° |
| 2026-05-05 09:19 | 42.49454 | 115.45246 | 33439 ft | 430 kts | 321° |
| 2026-05-05 09:19 | 42.54376 | 115.40609 | 33436 ft | 430 kts | 321° |
| 2026-05-05 09:20 | 42.59291 | 115.35971 | 33444 ft | 430 kts | 320° |
| 2026-05-05 09:20 | 42.64183 | 115.31343 | 33447 ft | 432 kts | 320° |
| 2026-05-05 09:21 | 42.69116 | 115.26666 | 33445 ft | 432 kts | 320° |
| 2026-05-05 09:21 | 42.74045 | 115.21985 | 33447 ft | 431 kts | 320° |
| 2026-05-05 09:22 | 42.78959 | 115.17312 | 33451 ft | 430 kts | 320° |
| 2026-05-05 09:22 | 42.83835 | 115.12662 | 33461 ft | 430 kts | 320° |
| 2026-05-05 09:23 | 42.88748 | 115.07969 | 33463 ft | 430 kts | 320° |
| 2026-05-05 09:23 | 42.93657 | 115.03269 | 33470 ft | 430 kts | 320° |
| 2026-05-05 09:24 | 42.98531 | 114.98596 | 33488 ft | 429 kts | 320° |
| 2026-05-05 09:24 | 43.03428 | 114.93889 | 33486 ft | 431 kts | 320° |
| 2026-05-05 09:25 | 43.08342 | 114.89158 | 33503 ft | 431 kts | 320° |
| 2026-05-05 09:25 | 43.13255 | 114.84438 | 33506 ft | 431 kts | 320° |
| 2026-05-05 09:26 | 43.18197 | 114.79818 | 33515 ft | 432 kts | 320° |
| 2026-05-05 09:26 | 43.23181 | 114.75182 | 33519 ft | 432 kts | 320° |
| 2026-05-05 09:27 | 43.28150 | 114.70535 | 33531 ft | 432 kts | 320° |
| 2026-05-05 09:27 | 43.33083 | 114.65900 | 33531 ft | 432 kts | 320° |
| 2026-05-05 09:28 | 43.38041 | 114.61227 | 33544 ft | 432 kts | 320° |
| 2026-05-05 09:28 | 43.43007 | 114.56538 | 33545 ft | 432 kts | 319° |
| 2026-05-05 09:29 | 43.47969 | 114.51845 | 33555 ft | 432 kts | 319° |
| 2026-05-05 09:29 | 43.52907 | 114.47167 | 33554 ft | 431 kts | 319° |
| 2026-05-05 09:30 | 43.57814 | 114.42506 | 33565 ft | 430 kts | 319° |
| 2026-05-05 09:30 | 43.62750 | 114.37808 | 33575 ft | 431 kts | 319° |
| 2026-05-05 09:31 | 43.67694 | 114.33091 | 33580 ft | 432 kts | 319° |
| 2026-05-05 09:31 | 43.72641 | 114.28365 | 33590 ft | 432 kts | 319° |
| 2026-05-05 09:32 | 43.77568 | 114.23651 | 33592 ft | 429 kts | 319° |
| 2026-05-05 09:32 | 43.82455 | 114.18962 | 33593 ft | 429 kts | 319° |
| 2026-05-05 09:33 | 43.87367 | 114.14237 | 33601 ft | 430 kts | 318° |
| 2026-05-05 09:33 | 43.92297 | 114.09486 | 33607 ft | 431 kts | 318° |
| 2026-05-05 09:34 | 43.97193 | 114.04760 | 33628 ft | 431 kts | 318° |
| 2026-05-05 09:34 | 44.02096 | 114.00022 | 33608 ft | 429 kts | 318° |
| 2026-05-05 09:35 | 44.06987 | 113.95282 | 33610 ft | 428 kts | 317° |
| 2026-05-05 09:35 | 44.14337 | 113.88135 | 33623 ft | 430 kts | 317° |
| 2026-05-05 09:36 | 44.19241 | 113.83356 | 33623 ft | 430 kts | 317° |
| 2026-05-05 09:36 | 44.24115 | 113.78597 | 33633 ft | 430 kts | 317° |
| 2026-05-05 09:37 | 44.29004 | 113.73818 | 33630 ft | 428 kts | 317° |
| 2026-05-05 09:37 | 44.33888 | 113.69028 | 33627 ft | 428 kts | 317° |
| 2026-05-05 09:38 | 44.38768 | 113.64232 | 33637 ft | 429 kts | 317° |
| 2026-05-05 09:38 | 44.43650 | 113.59426 | 33636 ft | 429 kts | 317° |
| 2026-05-05 09:39 | 44.48528 | 113.54615 | 33638 ft | 429 kts | 317° |
| 2026-05-05 09:39 | 44.53405 | 113.49795 | 33648 ft | 428 kts | 316° |
| 2026-05-05 09:40 | 44.58245 | 113.44999 | 33647 ft | 428 kts | 316° |
| 2026-05-05 09:40 | 44.63114 | 113.40165 | 33655 ft | 428 kts | 316° |
| 2026-05-05 09:41 | 44.67978 | 113.35326 | 33652 ft | 428 kts | 316° |
| 2026-05-05 09:41 | 44.72844 | 113.30476 | 33670 ft | 429 kts | 316° |
| 2026-05-05 09:42 | 44.77698 | 113.25625 | 33670 ft | 431 kts | 316° |
| 2026-05-05 09:42 | 44.82537 | 113.20647 | 33675 ft | 429 kts | 314° |
| 2026-05-05 09:43 | 44.87266 | 113.15512 | 33675 ft | 428 kts | 314° |
| 2026-05-05 09:43 | 44.91988 | 113.10373 | 33689 ft | 429 kts | 314° |
| 2026-05-05 09:44 | 44.96695 | 113.05284 | 33689 ft | 429 kts | 314° |
| 2026-05-05 09:44 | 45.01438 | 113.00169 | 33697 ft | 429 kts | 314° |
| 2026-05-05 09:45 | 45.06175 | 112.95057 | 33705 ft | 427 kts | 314° |
| 2026-05-05 09:45 | 45.10886 | 112.89958 | 33710 ft | 426 kts | 314° |
| 2026-05-05 09:46 | 45.15562 | 112.84880 | 33725 ft | 426 kts | 313° |
| 2026-05-05 09:46 | 45.20271 | 112.79754 | 33719 ft | 427 kts | 313° |
| 2026-05-05 09:47 | 45.24982 | 112.74618 | 33724 ft | 427 kts | 313° |
| 2026-05-05 09:47 | 45.29698 | 112.69468 | 33750 ft | 427 kts | 313° |
| 2026-05-05 09:48 | 45.34392 | 112.64333 | 33738 ft | 425 kts | 313° |
| 2026-05-05 09:48 | 45.39070 | 112.59199 | 33738 ft | 425 kts | 313° |
| 2026-05-05 09:49 | 45.43748 | 112.54053 | 33745 ft | 425 kts | 313° |
| 2026-05-05 09:49 | 45.48397 | 112.48930 | 33746 ft | 425 kts | 313° |
| 2026-05-05 09:50 | 45.53081 | 112.43758 | 33752 ft | 425 kts | 313° |
| 2026-05-05 09:50 | 45.57756 | 112.38585 | 33782 ft | 424 kts | 313° |
| 2026-05-05 09:51 | 45.62405 | 112.33436 | 33757 ft | 421 kts | 312° |
| 2026-05-05 09:51 | 45.67014 | 112.28311 | 33761 ft | 421 kts | 312° |
| 2026-05-05 09:52 | 45.71635 | 112.23161 | 33767 ft | 421 kts | 312° |
| 2026-05-05 09:52 | 45.76260 | 112.17996 | 33769 ft | 421 kts | 312° |
| 2026-05-05 09:53 | 45.80885 | 112.12823 | 33756 ft | 421 kts | 312° |
| 2026-05-05 09:53 | 45.85476 | 112.07677 | 33780 ft | 420 kts | 312° |
| 2026-05-05 09:54 | 45.90075 | 112.02515 | 33773 ft | 419 kts | 311° |
| 2026-05-05 09:54 | 45.94662 | 111.97349 | 33776 ft | 419 kts | 311° |
| 2026-05-05 09:55 | 45.99248 | 111.92173 | 33781 ft | 419 kts | 311° |
| 2026-05-05 09:55 | 46.03833 | 111.86988 | 33777 ft | 418 kts | 311° |
| 2026-05-05 09:56 | 46.08380 | 111.81835 | 33775 ft | 418 kts | 311° |
| 2026-05-05 09:56 | 46.12958 | 111.76636 | 33774 ft | 417 kts | 311° |
| 2026-05-05 09:57 | 46.16731 | 111.72346 | 33780 ft | 415 kts | 311° |
| 2026-05-05 09:57 | 46.21269 | 111.67171 | 33781 ft | 415 kts | 311° |
| 2026-05-05 09:58 | 46.25797 | 111.61995 | 33778 ft | 415 kts | 311° |
| 2026-05-05 09:58 | 46.30328 | 111.56804 | 33779 ft | 415 kts | 311° |
| 2026-05-05 09:59 | 46.34830 | 111.51637 | 33779 ft | 415 kts | 311° |
| 2026-05-05 09:59 | 46.39358 | 111.46430 | 33816 ft | 415 kts | 311° |
| 2026-05-05 10:00 | 46.43870 | 111.41237 | 33785 ft | 412 kts | 310° |
| 2026-05-05 10:00 | 46.48351 | 111.36060 | 33787 ft | 412 kts | 310° |
| 2026-05-05 10:01 | 46.52802 | 111.30901 | 33782 ft | 412 kts | 310° |
| 2026-05-05 10:01 | 46.57284 | 111.25700 | 33785 ft | 412 kts | 310° |
| 2026-05-05 10:02 | 46.61511 | 111.20786 | 33785 ft | 412 kts | 310° |
| 2026-05-05 10:02 | 46.65987 | 111.15572 | 33785 ft | 412 kts | 310° |
| 2026-05-05 10:03 | 46.70456 | 111.10355 | 33786 ft | 410 kts | 310° |
| 2026-05-05 10:03 | 46.74913 | 111.05142 | 33789 ft | 410 kts | 310° |
| 2026-05-05 10:04 | 46.79336 | 110.99952 | 33788 ft | 410 kts | 310° |
| 2026-05-05 10:04 | 46.83788 | 110.94718 | 33798 ft | 410 kts | 310° |
| 2026-05-05 10:05 | 46.88204 | 110.89516 | 33800 ft | 410 kts | 310° |
| 2026-05-05 10:05 | 46.92672 | 110.84243 | 33813 ft | 409 kts | 310° |
| 2026-05-05 10:06 | 46.97063 | 110.79050 | 33816 ft | 408 kts | 310° |
| 2026-05-05 10:06 | 47.01491 | 110.73797 | 33807 ft | 410 kts | 310° |
| 2026-05-05 10:07 | 47.05924 | 110.68528 | 33813 ft | 409 kts | 310° |
| 2026-05-05 10:07 | 47.10350 | 110.63256 | 33816 ft | 409 kts | 310° |
| 2026-05-05 10:08 | 47.14771 | 110.57980 | 33821 ft | 409 kts | 310° |
| 2026-05-05 10:08 | 47.19158 | 110.52733 | 33824 ft | 409 kts | 310° |
| 2026-05-05 10:09 | 47.23577 | 110.47437 | 33867 ft | 409 kts | 310° |
| 2026-05-05 10:09 | 47.28017 | 110.42098 | 33838 ft | 412 kts | 310° |
| 2026-05-05 10:10 | 47.32467 | 110.36740 | 33838 ft | 413 kts | 310° |
| 2026-05-05 10:10 | 47.36887 | 110.31411 | 33841 ft | 413 kts | 310° |
| 2026-05-05 10:11 | 47.41347 | 110.26015 | 33841 ft | 415 kts | 310° |
| 2026-05-05 10:11 | 47.45821 | 110.20590 | 33848 ft | 415 kts | 310° |
| 2026-05-05 10:12 | 47.50268 | 110.15188 | 33851 ft | 415 kts | 310° |
| 2026-05-05 10:12 | 47.54731 | 110.09754 | 33856 ft | 415 kts | 310° |
| 2026-05-05 10:13 | 47.59171 | 110.04335 | 33862 ft | 416 kts | 310° |
| 2026-05-05 10:13 | 47.63669 | 109.98823 | 33860 ft | 422 kts | 310° |
| 2026-05-05 10:14 | 47.68206 | 109.93256 | 33867 ft | 423 kts | 310° |
| 2026-05-05 10:14 | 47.72743 | 109.87689 | 33868 ft | 423 kts | 310° |
| 2026-05-05 10:15 | 47.77274 | 109.82115 | 33869 ft | 422 kts | 310° |
| 2026-05-05 10:15 | 47.81796 | 109.76524 | 33883 ft | 425 kts | 311° |
| 2026-05-05 10:16 | 47.86342 | 109.70888 | 33870 ft | 432 kts | 311° |
| 2026-05-05 10:16 | 47.90992 | 109.65120 | 33868 ft | 435 kts | 311° |
| 2026-05-05 10:17 | 47.95651 | 109.59333 | 33871 ft | 435 kts | 311° |
| 2026-05-05 10:17 | 48.00299 | 109.53539 | 33884 ft | 435 kts | 311° |
| 2026-05-05 10:18 | 48.04933 | 109.47745 | 33883 ft | 435 kts | 312° |
| 2026-05-05 10:18 | 48.09550 | 109.41956 | 33903 ft | 436 kts | 312° |
| 2026-05-05 10:19 | 48.14212 | 109.36101 | 33892 ft | 438 kts | 312° |
| 2026-05-05 10:19 | 48.18883 | 109.30222 | 33908 ft | 437 kts | 312° |
| 2026-05-05 10:20 | 48.23545 | 109.24353 | 33909 ft | 438 kts | 312° |
| 2026-05-05 10:20 | 48.28196 | 109.18461 | 33915 ft | 438 kts | 312° |
| 2026-05-05 10:21 | 48.32832 | 109.12565 | 33906 ft | 440 kts | 312° |
| 2026-05-05 10:21 | 48.37516 | 109.06603 | 33964 ft | 441 kts | 313° |
| 2026-05-05 10:22 | 48.42207 | 109.00626 | 33939 ft | 443 kts | 313° |
| 2026-05-05 10:22 | 48.46909 | 108.94620 | 33947 ft | 443 kts | 313° |
| 2026-05-05 10:23 | 48.51611 | 108.88597 | 33966 ft | 443 kts | 313° |
| 2026-05-05 10:23 | 48.56282 | 108.82595 | 33961 ft | 443 kts | 313° |
| 2026-05-05 10:24 | 48.60974 | 108.76553 | 33968 ft | 443 kts | 313° |
| 2026-05-05 10:24 | 48.65675 | 108.70485 | 33971 ft | 443 kts | 313° |
| 2026-05-05 10:25 | 48.70377 | 108.64398 | 33975 ft | 444 kts | 313° |
| 2026-05-05 10:25 | 48.75052 | 108.58329 | 33984 ft | 445 kts | 313° |
| 2026-05-05 10:26 | 48.79768 | 108.52192 | 33974 ft | 447 kts | 313° |
| 2026-05-05 10:26 | 48.84490 | 108.46034 | 33989 ft | 447 kts | 313° |
| 2026-05-05 10:27 | 48.89202 | 108.39871 | 33975 ft | 447 kts | 313° |
| 2026-05-05 10:27 | 48.93920 | 108.33692 | 33995 ft | 447 kts | 313° |
| 2026-05-05 10:28 | 48.98632 | 108.27501 | 33993 ft | 448 kts | 314° |
| 2026-05-05 10:28 | 49.03330 | 108.21304 | 34000 ft | 450 kts | 313° |
| 2026-05-05 10:29 | 49.08054 | 108.15058 | 33997 ft | 450 kts | 313° |
| 2026-05-05 10:29 | 49.12783 | 108.08796 | 34008 ft | 450 kts | 313° |
| 2026-05-05 10:30 | 49.17510 | 108.02523 | 34013 ft | 449 kts | 313° |
| 2026-05-05 10:30 | 49.22231 | 107.96228 | 34021 ft | 450 kts | 313° |
| 2026-05-05 10:31 | 49.26932 | 107.89944 | 34024 ft | 453 kts | 314° |
| 2026-05-05 10:31 | 49.31694 | 107.83568 | 34022 ft | 454 kts | 314° |
| 2026-05-05 10:32 | 49.36449 | 107.77188 | 34024 ft | 454 kts | 314° |
| 2026-05-05 10:32 | 49.41207 | 107.70787 | 34029 ft | 454 kts | 314° |
| 2026-05-05 10:33 | 49.45931 | 107.64413 | 34031 ft | 454 kts | 314° |
| 2026-05-05 10:33 | 49.50680 | 107.57987 | 34039 ft | 454 kts | 313° |
| 2026-05-05 10:34 | 49.55419 | 107.51553 | 34044 ft | 454 kts | 314° |
| 2026-05-05 10:34 | 49.60163 | 107.45098 | 34042 ft | 455 kts | 314° |
| 2026-05-05 10:35 | 49.64912 | 107.38620 | 34042 ft | 455 kts | 314° |
| 2026-05-05 10:35 | 49.69660 | 107.32125 | 34049 ft | 456 kts | 314° |
| 2026-05-05 10:36 | 49.74405 | 107.25617 | 34051 ft | 456 kts | 314° |
| 2026-05-05 10:36 | 49.79126 | 107.19125 | 34059 ft | 456 kts | 314° |
| 2026-05-05 10:37 | 49.83878 | 107.12571 | 34084 ft | 457 kts | 314° |
| 2026-05-05 10:37 | 49.88603 | 107.06037 | 34068 ft | 458 kts | 314° |
| 2026-05-05 10:38 | 49.93363 | 106.99431 | 34070 ft | 459 kts | 315° |
| 2026-05-05 10:38 | 49.98131 | 106.92801 | 34077 ft | 460 kts | 315° |
| 2026-05-05 10:39 | 50.02896 | 106.86160 | 34079 ft | 460 kts | 315° |
| 2026-05-05 10:39 | 50.07627 | 106.79545 | 34076 ft | 460 kts | 315° |
| 2026-05-05 10:40 | 50.12394 | 106.72860 | 34082 ft | 460 kts | 314° |
| 2026-05-05 10:40 | 50.17153 | 106.66157 | 34092 ft | 461 kts | 316° |
| 2026-05-05 10:41 | 50.21921 | 106.59437 | 34089 ft | 463 kts | 316° |
| 2026-05-05 10:41 | 50.26696 | 106.52690 | 34098 ft | 463 kts | 315° |
| 2026-05-05 10:42 | 50.33817 | 106.42575 | 34102 ft | 463 kts | 315° |
| 2026-05-05 10:43 | 50.38551 | 106.35748 | 34097 ft | 462 kts | 315° |
| 2026-05-05 10:43 | 50.43282 | 106.28894 | 34104 ft | 462 kts | 315° |
| 2026-05-05 10:44 | 50.48016 | 106.22033 | 34104 ft | 462 kts | 315° |
| 2026-05-05 10:44 | 50.52742 | 106.15170 | 34115 ft | 462 kts | 315° |
| 2026-05-05 10:45 | 50.57462 | 106.08297 | 34114 ft | 462 kts | 315° |
| 2026-05-05 10:45 | 50.62151 | 106.01447 | 34113 ft | 462 kts | 315° |
| 2026-05-05 10:46 | 50.66064 | 105.95715 | 34129 ft | 462 kts | 315° |
| 2026-05-05 10:46 | 50.70778 | 105.88794 | 34131 ft | 461 kts | 315° |
| 2026-05-05 10:47 | 50.75476 | 105.81877 | 34135 ft | 462 kts | 315° |
| 2026-05-05 10:47 | 50.80184 | 105.74925 | 34135 ft | 463 kts | 315° |
| 2026-05-05 10:48 | 50.84866 | 105.67997 | 34140 ft | 463 kts | 315° |
| 2026-05-05 10:48 | 50.89574 | 105.60979 | 34141 ft | 465 kts | 316° |
| 2026-05-05 10:49 | 50.94289 | 105.53933 | 34154 ft | 465 kts | 316° |
| 2026-05-05 10:49 | 50.99003 | 105.46874 | 34149 ft | 466 kts | 316° |
| 2026-05-05 10:50 | 51.03689 | 105.39840 | 34174 ft | 466 kts | 316° |
| 2026-05-05 10:50 | 51.08400 | 105.32747 | 34156 ft | 466 kts | 316° |
| 2026-05-05 10:51 | 51.13097 | 105.25653 | 34181 ft | 463 kts | 316° |
| 2026-05-05 10:51 | 51.17735 | 105.18627 | 34180 ft | 462 kts | 316° |
| 2026-05-05 10:52 | 51.22399 | 105.11540 | 34184 ft | 462 kts | 316° |
| 2026-05-05 10:52 | 51.27060 | 105.04448 | 34187 ft | 462 kts | 316° |
| 2026-05-05 10:53 | 51.31715 | 104.97336 | 34178 ft | 462 kts | 315° |
| 2026-05-05 10:53 | 51.36334 | 104.90248 | 34183 ft | 463 kts | 316° |
| 2026-05-05 10:54 | 51.40990 | 104.83086 | 34187 ft | 464 kts | 316° |
| 2026-05-05 10:54 | 51.45640 | 104.75917 | 34183 ft | 464 kts | 316° |
| 2026-05-05 10:55 | 51.50254 | 104.68784 | 34170 ft | 463 kts | 316° |
| 2026-05-05 10:55 | 51.54896 | 104.61583 | 34164 ft | 463 kts | 316° |
| 2026-05-05 10:56 | 51.59541 | 104.54376 | 34159 ft | 463 kts | 316° |
| 2026-05-05 10:56 | 51.64205 | 104.47256 | 34172 ft | 462 kts | 316° |
| 2026-05-05 10:57 | 51.68897 | 104.40108 | 34154 ft | 465 kts | 316° |
| 2026-05-05 10:57 | 51.73589 | 104.32924 | 34154 ft | 465 kts | 316° |
| 2026-05-05 10:58 | 51.78246 | 104.25758 | 34164 ft | 465 kts | 316° |
| 2026-05-05 10:58 | 51.82937 | 104.18515 | 34152 ft | 465 kts | 316° |
| 2026-05-05 10:59 | 51.87582 | 104.11320 | 34153 ft | 465 kts | 316° |
| 2026-05-05 10:59 | 51.92253 | 104.04064 | 34161 ft | 465 kts | 316° |
| 2026-05-05 11:00 | 51.96929 | 103.96777 | 34165 ft | 467 kts | 316° |
| 2026-05-05 11:00 | 52.01561 | 103.89351 | 34174 ft | 467 kts | 315° |
| 2026-05-05 11:01 | 52.06155 | 103.81876 | 34163 ft | 467 kts | 315° |
| 2026-05-05 11:01 | 52.10745 | 103.74408 | 34159 ft | 466 kts | 315° |
| 2026-05-05 11:02 | 52.15303 | 103.66993 | 34174 ft | 466 kts | 315° |
| 2026-05-05 11:02 | 52.19887 | 103.59524 | 34168 ft | 466 kts | 315° |
| 2026-05-05 11:03 | 52.24466 | 103.52038 | 34176 ft | 466 kts | 315° |
| 2026-05-05 11:03 | 52.29054 | 103.44514 | 34157 ft | 468 kts | 315° |
| 2026-05-05 11:04 | 52.33639 | 103.36970 | 34184 ft | 467 kts | 315° |
| 2026-05-05 11:04 | 52.38214 | 103.29419 | 34183 ft | 467 kts | 315° |
| 2026-05-05 11:05 | 52.42741 | 103.21882 | 34187 ft | 467 kts | 313° |
| 2026-05-05 11:05 | 52.46666 | 103.13360 | 34183 ft | 468 kts | 306° |
| 2026-05-05 11:06 | 52.50278 | 103.04447 | 34180 ft | 469 kts | 304° |
| 2026-05-05 11:06 | 52.53826 | 102.95476 | 34198 ft | 467 kts | 304° |
| 2026-05-05 11:07 | 52.57343 | 102.86564 | 34200 ft | 469 kts | 304° |
| 2026-05-05 11:07 | 52.60904 | 102.77545 | 34201 ft | 470 kts | 304° |
| 2026-05-05 11:08 | 52.64462 | 102.68517 | 34205 ft | 470 kts | 304° |
| 2026-05-05 11:08 | 52.68014 | 102.59471 | 34192 ft | 469 kts | 304° |
| 2026-05-05 11:09 | 52.71552 | 102.50429 | 34209 ft | 468 kts | 304° |
| 2026-05-05 11:09 | 52.75055 | 102.41442 | 34208 ft | 468 kts | 304° |
| 2026-05-05 11:10 | 52.78573 | 102.32385 | 34213 ft | 468 kts | 304° |
| 2026-05-05 11:10 | 52.82082 | 102.23319 | 34211 ft | 468 kts | 304° |
| 2026-05-05 11:11 | 52.85582 | 102.14245 | 34211 ft | 467 kts | 304° |
| 2026-05-05 11:11 | 52.89059 | 102.05195 | 34226 ft | 465 kts | 304° |
| 2026-05-05 11:12 | 52.92536 | 101.96115 | 34221 ft | 467 kts | 304° |
| 2026-05-05 11:12 | 52.96011 | 101.87008 | 34216 ft | 467 kts | 304° |
| 2026-05-05 11:13 | 52.99482 | 101.77879 | 34224 ft | 467 kts | 304° |
| 2026-05-05 11:13 | 53.02943 | 101.68741 | 34226 ft | 466 kts | 304° |
| 2026-05-05 11:14 | 53.06359 | 101.59689 | 34223 ft | 464 kts | 304° |
| 2026-05-05 11:14 | 53.09793 | 101.50558 | 34225 ft | 464 kts | 304° |
| 2026-05-05 11:15 | 53.13219 | 101.41415 | 34231 ft | 464 kts | 304° |
| 2026-05-05 11:15 | 53.16611 | 101.32331 | 34227 ft | 464 kts | 304° |
| 2026-05-05 11:16 | 53.20014 | 101.23182 | 34225 ft | 463 kts | 304° |
| 2026-05-05 11:16 | 53.23398 | 101.14050 | 34238 ft | 463 kts | 304° |
| 2026-05-05 11:17 | 53.26790 | 101.04865 | 34231 ft | 464 kts | 304° |
| 2026-05-05 11:17 | 53.30175 | 100.95679 | 34228 ft | 464 kts | 304° |
| 2026-05-05 11:18 | 53.33554 | 100.86461 | 34233 ft | 464 kts | 303° |
| 2026-05-05 11:18 | 53.36890 | 100.77316 | 34234 ft | 462 kts | 304° |
| 2026-05-05 11:19 | 53.40225 | 100.68146 | 34240 ft | 460 kts | 303° |
| 2026-05-05 11:19 | 53.43550 | 100.58968 | 34240 ft | 460 kts | 303° |
| 2026-05-05 11:20 | 53.46877 | 100.49761 | 34246 ft | 460 kts | 303° |
| 2026-05-05 11:20 | 53.50169 | 100.40618 | 34244 ft | 460 kts | 303° |
| 2026-05-05 11:21 | 53.53473 | 100.31407 | 34239 ft | 457 kts | 303° |
| 2026-05-05 11:21 | 53.56734 | 100.22273 | 34241 ft | 454 kts | 303° |
| 2026-05-05 11:22 | 53.59986 | 100.13137 | 34253 ft | 454 kts | 303° |
| 2026-05-05 11:22 | 53.63209 | 100.04051 | 34249 ft | 454 kts | 303° |
| 2026-05-05 11:23 | 53.66451 | 99.94878 | 34250 ft | 454 kts | 303° |
| 2026-05-05 11:23 | 53.69678 | 99.85711 | 34233 ft | 454 kts | 303° |
| 2026-05-05 11:24 | 53.72900 | 99.76527 | 34251 ft | 454 kts | 303° |
| 2026-05-05 11:24 | 53.76093 | 99.67388 | 34239 ft | 454 kts | 303° |
| 2026-05-05 11:25 | 53.79299 | 99.58178 | 34223 ft | 454 kts | 303° |
| 2026-05-05 11:25 | 53.82498 | 99.48956 | 34222 ft | 454 kts | 303° |
| 2026-05-05 11:26 | 53.85686 | 99.39733 | 34220 ft | 452 kts | 303° |
| 2026-05-05 11:26 | 53.88839 | 99.30569 | 34230 ft | 448 kts | 303° |
| 2026-05-05 11:27 | 53.91968 | 99.21450 | 34217 ft | 451 kts | 303° |
| 2026-05-05 11:27 | 53.95123 | 99.12219 | 34217 ft | 452 kts | 303° |
| 2026-05-05 11:28 | 53.98270 | 99.02976 | 34212 ft | 452 kts | 303° |
| 2026-05-05 11:28 | 54.01407 | 98.93722 | 34200 ft | 450 kts | 303° |
| 2026-05-05 11:29 | 54.04500 | 98.84561 | 34204 ft | 444 kts | 303° |
| 2026-05-05 11:29 | 54.07553 | 98.75509 | 34203 ft | 444 kts | 303° |
| 2026-05-05 11:30 | 54.10621 | 98.66357 | 34204 ft | 443 kts | 303° |
| 2026-05-05 11:30 | 54.13675 | 98.57213 | 34206 ft | 443 kts | 303° |
| 2026-05-05 11:31 | 54.16716 | 98.48077 | 34177 ft | 443 kts | 303° |
| 2026-05-05 11:31 | 54.19713 | 98.39037 | 34193 ft | 437 kts | 303° |
| 2026-05-05 11:32 | 54.22700 | 98.30000 | 34199 ft | 437 kts | 303° |
| 2026-05-05 11:32 | 54.25700 | 98.20897 | 34196 ft | 439 kts | 303° |
| 2026-05-05 11:33 | 54.28694 | 98.11770 | 34194 ft | 439 kts | 303° |
| 2026-05-05 11:33 | 54.31680 | 98.02630 | 34197 ft | 440 kts | 303° |
| 2026-05-05 11:34 | 54.34144 | 97.95063 | 34510 ft | 434 kts | 303° |
| 2026-05-05 11:34 | 54.36096 | 97.89077 | 34749 ft | 434 kts | 303° |
| 2026-05-05 11:34 | 54.37092 | 97.86023 | 34784 ft | 435 kts | 303° |
| 2026-05-05 11:34 | 54.39047 | 97.80017 | 34938 ft | 436 kts | 303° |
| 2026-05-05 11:35 | 54.40043 | 97.76952 | 35023 ft | 436 kts | 303° |
| 2026-05-05 11:35 | 54.41521 | 97.72400 | 35130 ft | 436 kts | 303° |
| 2026-05-05 11:35 | 54.42996 | 97.67844 | 35253 ft | 437 kts | 302° |
| 2026-05-05 11:36 | 54.45931 | 97.58751 | 35460 ft | 438 kts | 302° |
| 2026-05-05 11:36 | 54.47411 | 97.54156 | 35578 ft | 438 kts | 302° |
| 2026-05-05 11:36 | 54.48884 | 97.49571 | 35630 ft | 438 kts | 302° |
| 2026-05-05 11:36 | 54.50359 | 97.44967 | 35836 ft | 437 kts | 302° |
| 2026-05-05 11:37 | 54.51828 | 97.40378 | 35921 ft | 437 kts | 302° |
| 2026-05-05 11:37 | 54.54758 | 97.31206 | 35990 ft | 441 kts | 302° |
| 2026-05-05 11:38 | 54.57713 | 97.21912 | 36166 ft | 442 kts | 302° |
| 2026-05-05 11:38 | 54.60679 | 97.12548 | 36174 ft | 447 kts | 302° |
| 2026-05-05 11:39 | 54.63662 | 97.03091 | 36175 ft | 448 kts | 302° |
| 2026-05-05 11:39 | 54.66604 | 96.93716 | 36170 ft | 445 kts | 302° |
| 2026-05-05 11:40 | 54.69547 | 96.84317 | 36165 ft | 444 kts | 302° |
| 2026-05-05 11:40 | 54.72480 | 96.74914 | 36163 ft | 444 kts | 302° |
| 2026-05-05 11:41 | 54.75414 | 96.65481 | 36157 ft | 444 kts | 302° |
| 2026-05-05 11:41 | 54.78282 | 96.55969 | 36155 ft | 445 kts | 300° |
| 2026-05-05 11:42 | 54.81068 | 96.46479 | 36152 ft | 443 kts | 300° |
| 2026-05-05 11:42 | 54.83865 | 96.36948 | 36153 ft | 442 kts | 300° |
| 2026-05-05 11:43 | 54.86666 | 96.27424 | 36150 ft | 443 kts | 300° |
| 2026-05-05 11:43 | 54.89447 | 96.17941 | 36148 ft | 444 kts | 300° |
| 2026-05-05 11:44 | 54.92240 | 96.08377 | 36154 ft | 444 kts | 300° |
| 2026-05-05 11:44 | 54.95027 | 95.98798 | 36116 ft | 443 kts | 300° |
| 2026-05-05 11:45 | 54.97799 | 95.89228 | 36141 ft | 442 kts | 300° |
| 2026-05-05 11:45 | 55.00556 | 95.79667 | 36138 ft | 441 kts | 300° |
| 2026-05-05 11:46 | 55.03311 | 95.70074 | 36133 ft | 442 kts | 300° |
| 2026-05-05 11:46 | 55.06052 | 95.60489 | 36128 ft | 441 kts | 300° |
| 2026-05-05 11:47 | 55.08767 | 95.50957 | 36131 ft | 441 kts | 300° |
| 2026-05-05 11:47 | 55.11493 | 95.41351 | 36116 ft | 440 kts | 300° |
| 2026-05-05 11:48 | 55.15540 | 95.27014 | 36132 ft | 438 kts | 299° |
| 2026-05-05 11:48 | 55.18236 | 95.17417 | 36126 ft | 441 kts | 299° |
| 2026-05-05 11:49 | 55.20935 | 95.07769 | 36124 ft | 441 kts | 299° |
| 2026-05-05 11:49 | 55.23627 | 94.98097 | 36098 ft | 442 kts | 299° |
| 2026-05-05 11:50 | 55.26296 | 94.88472 | 36120 ft | 441 kts | 299° |
| 2026-05-05 11:50 | 55.29192 | 94.78996 | 36089 ft | 440 kts | 303° |
| 2026-05-05 11:51 | 55.32361 | 94.69830 | 36102 ft | 439 kts | 304° |
| 2026-05-05 11:51 | 55.35518 | 94.60625 | 36085 ft | 439 kts | 303° |
| 2026-05-05 11:52 | 55.38615 | 94.51352 | 36087 ft | 440 kts | 303° |
| 2026-05-05 11:52 | 55.41682 | 94.42043 | 36068 ft | 439 kts | 302° |
| 2026-05-05 11:53 | 55.44729 | 94.32746 | 36088 ft | 437 kts | 302° |
| 2026-05-05 11:53 | 55.47766 | 94.23455 | 36088 ft | 438 kts | 302° |
| 2026-05-05 11:54 | 55.50792 | 94.14169 | 36075 ft | 439 kts | 302° |
| 2026-05-05 11:54 | 55.53826 | 94.04821 | 36081 ft | 439 kts | 302° |
| 2026-05-05 11:55 | 55.56855 | 93.95453 | 36080 ft | 439 kts | 302° |
| 2026-05-05 11:55 | 55.59878 | 93.86067 | 36068 ft | 438 kts | 301° |
| 2026-05-05 11:56 | 55.62875 | 93.76721 | 36073 ft | 436 kts | 301° |
| 2026-05-05 11:56 | 55.65843 | 93.67434 | 36071 ft | 435 kts | 301° |
| 2026-05-05 11:57 | 55.68820 | 93.58081 | 36071 ft | 435 kts | 301° |
| 2026-05-05 11:57 | 55.71794 | 93.48704 | 36071 ft | 436 kts | 301° |
| 2026-05-05 11:58 | 55.74759 | 93.39315 | 36076 ft | 436 kts | 301° |
| 2026-05-05 11:58 | 55.77691 | 93.29866 | 36058 ft | 435 kts | 300° |
| 2026-05-05 11:59 | 55.80546 | 93.20477 | 36063 ft | 433 kts | 300° |
| 2026-05-05 11:59 | 55.83411 | 93.11040 | 36059 ft | 433 kts | 300° |
| 2026-05-05 12:00 | 55.86276 | 93.01600 | 36055 ft | 433 kts | 300° |
| 2026-05-05 12:00 | 55.89116 | 92.92200 | 36052 ft | 433 kts | 300° |
| 2026-05-05 12:01 | 55.91967 | 92.82730 | 36051 ft | 433 kts | 300° |
| 2026-05-05 12:01 | 55.94815 | 92.73229 | 36055 ft | 433 kts | 299° |
| 2026-05-05 12:02 | 55.97631 | 92.63806 | 36041 ft | 432 kts | 299° |
| 2026-05-05 12:02 | 56.00458 | 92.54311 | 36043 ft | 432 kts | 299° |
| 2026-05-05 12:03 | 56.03287 | 92.44803 | 36053 ft | 433 kts | 298° |
| 2026-05-05 12:03 | 56.06105 | 92.35287 | 36044 ft | 436 kts | 298° |
| 2026-05-05 12:04 | 56.08935 | 92.25670 | 36027 ft | 436 kts | 298° |
| 2026-05-05 12:04 | 56.11749 | 92.16071 | 36039 ft | 435 kts | 298° |
| 2026-05-05 12:05 | 56.14556 | 92.06462 | 36037 ft | 435 kts | 298° |
| 2026-05-05 12:05 | 56.17355 | 91.96845 | 36032 ft | 435 kts | 298° |
| 2026-05-05 12:06 | 56.20149 | 91.87203 | 36018 ft | 435 kts | 298° |
| 2026-05-05 12:06 | 56.22935 | 91.77551 | 36013 ft | 435 kts | 298° |
| 2026-05-05 12:07 | 56.25694 | 91.67951 | 36018 ft | 434 kts | 297° |
| 2026-05-05 12:07 | 56.28460 | 91.58288 | 36011 ft | 433 kts | 297° |
| 2026-05-05 12:08 | 56.31220 | 91.48607 | 36015 ft | 434 kts | 297° |
| 2026-05-05 12:08 | 56.33958 | 91.38960 | 36004 ft | 436 kts | 297° |
| 2026-05-05 12:09 | 56.36715 | 91.29207 | 36003 ft | 436 kts | 297° |
| 2026-05-05 12:09 | 56.39467 | 91.19429 | 36005 ft | 436 kts | 297° |
| 2026-05-05 12:10 | 56.42210 | 91.09642 | 35997 ft | 436 kts | 297° |
| 2026-05-05 12:10 | 56.44937 | 90.99869 | 36014 ft | 435 kts | 297° |
| 2026-05-05 12:11 | 56.47638 | 90.90148 | 36018 ft | 435 kts | 297° |
| 2026-05-05 12:11 | 56.50347 | 90.80358 | 36000 ft | 435 kts | 297° |
| 2026-05-05 12:12 | 56.53056 | 90.70529 | 36018 ft | 435 kts | 297° |
| 2026-05-05 12:12 | 56.55752 | 90.60703 | 36015 ft | 435 kts | 296° |
| 2026-05-05 12:13 | 56.58424 | 90.50921 | 36020 ft | 435 kts | 296° |
| 2026-05-05 12:13 | 56.61101 | 90.41077 | 36027 ft | 434 kts | 296° |
| 2026-05-05 12:14 | 56.63767 | 90.31233 | 36023 ft | 434 kts | 296° |
| 2026-05-05 12:14 | 56.66426 | 90.21374 | 36027 ft | 434 kts | 296° |
| 2026-05-05 12:15 | 56.69062 | 90.11556 | 36028 ft | 434 kts | 296° |
| 2026-05-05 12:15 | 56.71705 | 90.01669 | 36029 ft | 434 kts | 296° |
| 2026-05-05 12:16 | 56.74341 | 89.91764 | 36019 ft | 433 kts | 296° |
| 2026-05-05 12:16 | 56.76957 | 89.81892 | 36021 ft | 432 kts | 296° |
| 2026-05-05 12:17 | 56.79547 | 89.72077 | 36018 ft | 432 kts | 296° |
| 2026-05-05 12:17 | 56.82150 | 89.62167 | 36016 ft | 432 kts | 296° |
| 2026-05-05 12:18 | 56.84738 | 89.52271 | 36033 ft | 432 kts | 296° |
| 2026-05-05 12:18 | 56.87336 | 89.42294 | 36018 ft | 436 kts | 296° |
| 2026-05-05 12:19 | 56.89926 | 89.32304 | 36018 ft | 436 kts | 296° |
| 2026-05-05 12:19 | 56.92519 | 89.22254 | 36015 ft | 436 kts | 296° |
| 2026-05-05 12:20 | 56.95101 | 89.12201 | 36012 ft | 436 kts | 295° |
| 2026-05-05 12:20 | 56.97676 | 89.02133 | 36006 ft | 436 kts | 295° |
| 2026-05-05 12:21 | 57.00243 | 88.92050 | 36008 ft | 436 kts | 295° |
| 2026-05-05 12:21 | 57.02805 | 88.81944 | 35980 ft | 436 kts | 295° |
| 2026-05-05 12:22 | 57.05338 | 88.71901 | 35998 ft | 435 kts | 295° |
| 2026-05-05 12:22 | 57.07873 | 88.61808 | 35996 ft | 434 kts | 295° |
| 2026-05-05 12:23 | 57.10396 | 88.51716 | 36025 ft | 435 kts | 295° |
| 2026-05-05 12:23 | 57.12922 | 88.41564 | 35986 ft | 438 kts | 295° |
| 2026-05-05 12:24 | 57.15027 | 88.33070 | 35988 ft | 439 kts | 295° |
| 2026-05-05 12:24 | 57.17558 | 88.22817 | 35979 ft | 438 kts | 295° |
| 2026-05-05 12:25 | 57.20053 | 88.12639 | 35980 ft | 437 kts | 295° |
| 2026-05-05 12:25 | 57.22551 | 88.02402 | 35973 ft | 436 kts | 295° |
| 2026-05-05 12:26 | 57.25035 | 87.92177 | 35971 ft | 436 kts | 295° |
| 2026-05-05 12:26 | 57.27502 | 87.81979 | 35958 ft | 436 kts | 295° |
| 2026-05-05 12:27 | 57.29972 | 87.71718 | 35955 ft | 436 kts | 295° |
| 2026-05-05 12:27 | 57.32431 | 87.61456 | 35930 ft | 436 kts | 295° |
| 2026-05-05 12:28 | 57.34885 | 87.51169 | 35952 ft | 435 kts | 294° |
| 2026-05-05 12:28 | 57.37312 | 87.40942 | 35947 ft | 437 kts | 294° |
| 2026-05-05 12:29 | 57.39756 | 87.30596 | 35941 ft | 438 kts | 294° |
| 2026-05-05 12:29 | 57.42192 | 87.20233 | 35938 ft | 438 kts | 294° |
| 2026-05-05 12:30 | 57.44622 | 87.09846 | 35932 ft | 438 kts | 294° |
| 2026-05-05 12:30 | 57.47028 | 86.99513 | 35904 ft | 438 kts | 294° |
| 2026-05-05 12:31 | 57.49438 | 86.89112 | 35928 ft | 437 kts | 294° |
| 2026-05-05 12:31 | 57.51832 | 86.78727 | 35924 ft | 436 kts | 294° |
| 2026-05-05 12:32 | 57.54215 | 86.68342 | 35927 ft | 436 kts | 294° |
| 2026-05-05 12:32 | 57.56580 | 86.57987 | 35916 ft | 436 kts | 294° |
| 2026-05-05 12:33 | 57.58951 | 86.47553 | 35919 ft | 436 kts | 294° |
| 2026-05-05 12:33 | 57.61296 | 86.37179 | 35896 ft | 437 kts | 293° |
| 2026-05-05 12:34 | 57.63645 | 86.26741 | 35917 ft | 435 kts | 293° |
| 2026-05-05 12:34 | 57.65980 | 86.16307 | 35912 ft | 435 kts | 293° |
| 2026-05-05 12:35 | 57.68307 | 86.05862 | 35907 ft | 435 kts | 293° |
| 2026-05-05 12:35 | 57.70624 | 85.95409 | 35904 ft | 435 kts | 293° |
| 2026-05-05 12:36 | 57.72932 | 85.84943 | 35905 ft | 435 kts | 293° |
| 2026-05-05 12:36 | 57.75231 | 85.74467 | 35892 ft | 435 kts | 293° |
| 2026-05-05 12:37 | 57.77495 | 85.64098 | 35900 ft | 431 kts | 293° |
| 2026-05-05 12:37 | 57.79756 | 85.53689 | 35897 ft | 430 kts | 293° |
| 2026-05-05 12:38 | 57.82005 | 85.43284 | 35897 ft | 430 kts | 292° |
| 2026-05-05 12:38 | 57.84251 | 85.32847 | 35914 ft | 430 kts | 292° |
| 2026-05-05 12:39 | 57.86471 | 85.22469 | 35891 ft | 432 kts | 292° |
| 2026-05-05 12:39 | 57.88710 | 85.11957 | 35873 ft | 433 kts | 292° |
| 2026-05-05 12:40 | 57.90928 | 85.01483 | 35892 ft | 429 kts | 292° |
| 2026-05-05 12:40 | 57.93124 | 84.91058 | 35892 ft | 428 kts | 292° |
| 2026-05-05 12:41 | 57.95296 | 84.80699 | 35886 ft | 428 kts | 292° |
| 2026-05-05 12:41 | 57.97481 | 84.70226 | 35886 ft | 428 kts | 292° |
| 2026-05-05 12:42 | 57.99650 | 84.59774 | 35886 ft | 428 kts | 292° |
| 2026-05-05 12:42 | 58.01813 | 84.49300 | 35886 ft | 428 kts | 291° |
| 2026-05-05 12:43 | 58.03958 | 84.38857 | 35881 ft | 425 kts | 291° |
| 2026-05-05 12:43 | 58.06083 | 84.28452 | 35879 ft | 424 kts | 291° |
| 2026-05-05 12:44 | 58.08200 | 84.18039 | 35886 ft | 425 kts | 291° |
| 2026-05-05 12:44 | 58.10304 | 84.07636 | 35880 ft | 428 kts | 291° |
| 2026-05-05 12:45 | 58.12423 | 83.97098 | 35878 ft | 428 kts | 291° |
| 2026-05-05 12:45 | 58.14530 | 83.86571 | 35879 ft | 428 kts | 291° |
| 2026-05-05 12:46 | 58.16627 | 83.76035 | 35873 ft | 426 kts | 290° |
| 2026-05-05 12:46 | 58.18702 | 83.65555 | 35875 ft | 424 kts | 290° |
| 2026-05-05 12:47 | 58.20753 | 83.55134 | 35877 ft | 424 kts | 290° |
| 2026-05-05 12:47 | 58.22807 | 83.44648 | 35876 ft | 424 kts | 290° |
| 2026-05-05 12:48 | 58.24851 | 83.34159 | 35875 ft | 424 kts | 290° |
| 2026-05-05 12:48 | 58.26887 | 83.23653 | 35872 ft | 424 kts | 290° |
| 2026-05-05 12:49 | 58.28916 | 83.13125 | 35872 ft | 424 kts | 290° |
| 2026-05-05 12:49 | 58.30929 | 83.02630 | 35867 ft | 425 kts | 290° |
| 2026-05-05 12:50 | 58.32950 | 82.92033 | 35870 ft | 426 kts | 290° |
| 2026-05-05 12:50 | 58.35183 | 82.81575 | 35870 ft | 426 kts | 293° |
| 2026-05-05 12:51 | 58.37564 | 82.71241 | 35870 ft | 426 kts | 293° |
| 2026-05-05 12:51 | 58.39913 | 82.60874 | 35867 ft | 426 kts | 292° |
| 2026-05-05 12:52 | 58.42218 | 82.50463 | 35852 ft | 425 kts | 292° |
| 2026-05-05 12:52 | 58.44482 | 82.40120 | 35867 ft | 424 kts | 292° |
| 2026-05-05 12:53 | 58.46746 | 82.29725 | 35864 ft | 424 kts | 292° |
| 2026-05-05 12:53 | 58.49003 | 82.19311 | 35864 ft | 424 kts | 292° |
| 2026-05-05 12:54 | 58.52373 | 82.03679 | 35865 ft | 425 kts | 291° |
| 2026-05-05 12:55 | 58.54621 | 81.93184 | 35862 ft | 427 kts | 291° |
| 2026-05-05 12:55 | 58.56866 | 81.82648 | 35854 ft | 427 kts | 291° |
| 2026-05-05 12:56 | 58.59086 | 81.72180 | 35862 ft | 425 kts | 291° |
| 2026-05-05 12:56 | 58.61306 | 81.61657 | 35862 ft | 425 kts | 291° |
| 2026-05-05 12:57 | 58.63521 | 81.51103 | 35862 ft | 425 kts | 291° |
| 2026-05-05 12:57 | 58.65711 | 81.40610 | 35862 ft | 425 kts | 291° |
| 2026-05-05 12:58 | 58.67908 | 81.30030 | 35861 ft | 425 kts | 291° |
| 2026-05-05 12:58 | 58.70078 | 81.19531 | 35861 ft | 425 kts | 290° |
| 2026-05-05 12:59 | 58.72264 | 81.08941 | 35861 ft | 425 kts | 290° |
| 2026-05-05 12:59 | 58.74453 | 80.98326 | 35862 ft | 427 kts | 290° |
| 2026-05-05 13:00 | 58.77719 | 80.82388 | 35868 ft | 428 kts | 290° |
| 2026-05-05 13:01 | 58.82063 | 80.60979 | 35865 ft | 428 kts | 290° |
| 2026-05-05 13:01 | 58.84223 | 80.50245 | 35864 ft | 428 kts | 290° |
| 2026-05-05 13:02 | 58.86358 | 80.39577 | 35864 ft | 428 kts | 289° |
| 2026-05-05 13:02 | 58.88503 | 80.28810 | 35861 ft | 428 kts | 289° |
| 2026-05-05 13:03 | 58.90619 | 80.18027 | 35861 ft | 428 kts | 289° |
| 2026-05-05 13:03 | 58.92717 | 80.07237 | 35861 ft | 428 kts | 289° |
| 2026-05-05 13:04 | 58.94809 | 79.96433 | 35862 ft | 428 kts | 289° |
| 2026-05-05 13:04 | 58.96896 | 79.85612 | 35861 ft | 429 kts | 289° |
| 2026-05-05 13:05 | 58.98976 | 79.74773 | 35855 ft | 429 kts | 288° |
| 2026-05-05 13:05 | 59.01050 | 79.63901 | 35862 ft | 430 kts | 288° |
| 2026-05-05 13:06 | 59.03103 | 79.53076 | 35861 ft | 430 kts | 288° |
| 2026-05-05 13:06 | 59.05165 | 79.42141 | 35856 ft | 430 kts | 288° |
| 2026-05-05 13:07 | 59.07214 | 79.31219 | 35858 ft | 430 kts | 288° |
| 2026-05-05 13:07 | 59.09256 | 79.20265 | 35856 ft | 430 kts | 288° |
| 2026-05-05 13:08 | 59.11287 | 79.09318 | 35856 ft | 430 kts | 288° |
| 2026-05-05 13:08 | 59.13311 | 78.98334 | 35856 ft | 431 kts | 288° |
| 2026-05-05 13:09 | 59.15333 | 78.87300 | 35859 ft | 433 kts | 288° |
| 2026-05-05 13:09 | 59.17339 | 78.76296 | 35856 ft | 434 kts | 288° |
| 2026-05-05 13:10 | 59.19350 | 78.65202 | 35856 ft | 434 kts | 288° |
| 2026-05-05 13:10 | 59.21348 | 78.54105 | 35859 ft | 433 kts | 288° |
| 2026-05-05 13:11 | 59.23340 | 78.42984 | 35859 ft | 434 kts | 288° |
| 2026-05-05 13:11 | 59.25322 | 78.31847 | 35856 ft | 434 kts | 287° |
| 2026-05-05 13:12 | 59.26967 | 78.22556 | 35859 ft | 435 kts | 287° |
| 2026-05-05 13:12 | 59.28942 | 78.11338 | 35861 ft | 436 kts | 287° |
| 2026-05-05 13:13 | 59.30907 | 78.00110 | 35862 ft | 436 kts | 287° |
| 2026-05-05 13:13 | 59.32849 | 77.88944 | 35881 ft | 436 kts | 287° |
| 2026-05-05 13:14 | 59.34797 | 77.77675 | 35868 ft | 437 kts | 287° |
| 2026-05-05 13:14 | 59.36736 | 77.66383 | 35871 ft | 437 kts | 287° |
| 2026-05-05 13:15 | 59.38669 | 77.55068 | 35870 ft | 438 kts | 287° |
| 2026-05-05 13:15 | 59.40599 | 77.43694 | 35870 ft | 439 kts | 287° |
| 2026-05-05 13:16 | 59.42516 | 77.32326 | 35867 ft | 439 kts | 287° |
| 2026-05-05 13:16 | 59.44415 | 77.20992 | 35870 ft | 439 kts | 287° |
| 2026-05-05 13:17 | 59.46316 | 77.09576 | 35870 ft | 439 kts | 286° |
| 2026-05-05 13:17 | 59.48208 | 76.98145 | 35870 ft | 439 kts | 286° |
| 2026-05-05 13:18 | 59.50107 | 76.86700 | 35867 ft | 440 kts | 286° |
| 2026-05-05 13:18 | 59.52011 | 76.75224 | 35876 ft | 442 kts | 286° |
| 2026-05-05 13:19 | 59.53900 | 76.63764 | 35873 ft | 442 kts | 286° |
| 2026-05-05 13:19 | 59.55790 | 76.52222 | 35876 ft | 442 kts | 286° |
| 2026-05-05 13:20 | 59.57667 | 76.40659 | 35873 ft | 442 kts | 286° |
| 2026-05-05 13:20 | 59.59510 | 76.29061 | 35875 ft | 442 kts | 286° |
| 2026-05-05 13:21 | 59.61338 | 76.17462 | 35873 ft | 442 kts | 285° |
| 2026-05-05 13:21 | 59.63160 | 76.05856 | 35872 ft | 442 kts | 285° |
| 2026-05-05 13:22 | 59.64973 | 75.94241 | 35872 ft | 442 kts | 285° |
| 2026-05-05 13:22 | 59.66779 | 75.82601 | 35874 ft | 442 kts | 285° |
| 2026-05-05 13:23 | 59.68572 | 75.70964 | 35898 ft | 443 kts | 285° |
| 2026-05-05 13:23 | 59.70362 | 75.59265 | 35872 ft | 444 kts | 285° |
| 2026-05-05 13:24 | 59.72134 | 75.47606 | 35874 ft | 445 kts | 285° |
| 2026-05-05 13:24 | 59.73908 | 75.35854 | 35876 ft | 446 kts | 285° |
| 2026-05-05 13:25 | 59.75912 | 75.24191 | 35877 ft | 447 kts | 289° |
| 2026-05-05 13:25 | 59.78227 | 75.12709 | 35878 ft | 447 kts | 290° |
| 2026-05-05 13:26 | 59.80566 | 75.01313 | 35879 ft | 448 kts | 290° |
| 2026-05-05 13:26 | 59.82911 | 74.89844 | 35877 ft | 448 kts | 290° |
| 2026-05-05 13:27 | 59.85240 | 74.78350 | 35876 ft | 448 kts | 290° |
| 2026-05-05 13:27 | 59.87541 | 74.66912 | 35861 ft | 448 kts | 290° |
| 2026-05-05 13:28 | 59.89858 | 74.55323 | 35883 ft | 451 kts | 290° |
| 2026-05-05 13:28 | 59.92174 | 74.43671 | 35882 ft | 452 kts | 290° |
| 2026-05-05 13:29 | 59.94482 | 74.31999 | 35884 ft | 452 kts | 290° |
| 2026-05-05 13:29 | 59.96768 | 74.20369 | 35884 ft | 452 kts | 290° |
| 2026-05-05 13:30 | 59.99056 | 74.08657 | 35885 ft | 452 kts | 290° |
| 2026-05-05 13:30 | 60.01330 | 73.96948 | 35887 ft | 452 kts | 290° |
| 2026-05-05 13:31 | 60.03584 | 73.85274 | 35881 ft | 452 kts | 289° |
| 2026-05-05 13:31 | 60.05844 | 73.73496 | 35883 ft | 453 kts | 290° |
| 2026-05-05 13:32 | 60.08100 | 73.61672 | 35875 ft | 454 kts | 290° |
| 2026-05-05 13:32 | 60.10346 | 73.49829 | 35899 ft | 454 kts | 290° |
| 2026-05-05 13:33 | 60.12581 | 73.37967 | 35884 ft | 454 kts | 289° |
| 2026-05-05 13:33 | 60.14794 | 73.26155 | 35887 ft | 454 kts | 289° |
| 2026-05-05 13:34 | 60.17012 | 73.14240 | 35901 ft | 455 kts | 289° |
| 2026-05-05 13:34 | 60.19206 | 73.02387 | 35893 ft | 455 kts | 289° |
| 2026-05-05 13:35 | 60.21408 | 72.90411 | 35888 ft | 456 kts | 289° |
| 2026-05-05 13:35 | 60.23601 | 72.78408 | 35894 ft | 456 kts | 289° |
| 2026-05-05 13:36 | 60.25784 | 72.66386 | 35889 ft | 457 kts | 289° |
| 2026-05-05 13:36 | 60.27944 | 72.54416 | 35891 ft | 457 kts | 289° |
| 2026-05-05 13:37 | 60.30110 | 72.42341 | 35897 ft | 457 kts | 289° |
| 2026-05-05 13:37 | 60.32264 | 72.30249 | 35896 ft | 458 kts | 289° |
| 2026-05-05 13:38 | 60.34410 | 72.18127 | 35895 ft | 459 kts | 289° |
| 2026-05-05 13:38 | 60.36549 | 72.05965 | 35899 ft | 459 kts | 289° |
| 2026-05-05 13:39 | 60.38662 | 71.93870 | 35894 ft | 459 kts | 288° |
| 2026-05-05 13:39 | 60.40780 | 71.81673 | 35894 ft | 459 kts | 289° |
| 2026-05-05 13:40 | 60.42888 | 71.69449 | 35892 ft | 460 kts | 288° |
| 2026-05-05 13:40 | 60.44973 | 71.57280 | 35893 ft | 460 kts | 288° |
| 2026-05-05 13:41 | 60.47058 | 71.45031 | 35883 ft | 460 kts | 288° |
| 2026-05-05 13:41 | 60.49136 | 71.32741 | 35897 ft | 461 kts | 288° |
| 2026-05-05 13:42 | 60.51206 | 71.20415 | 35900 ft | 461 kts | 288° |
| 2026-05-05 13:42 | 60.53262 | 71.08086 | 35898 ft | 461 kts | 288° |
| 2026-05-05 13:43 | 60.55307 | 70.95740 | 35897 ft | 461 kts | 288° |
| 2026-05-05 13:43 | 60.57327 | 70.83462 | 35894 ft | 460 kts | 288° |
| 2026-05-05 13:44 | 60.59343 | 70.71123 | 35894 ft | 459 kts | 288° |
| 2026-05-05 13:44 | 60.61347 | 70.58775 | 35890 ft | 459 kts | 288° |
| 2026-05-05 13:45 | 60.63671 | 70.46741 | 35895 ft | 460 kts | 298° |
| 2026-05-05 13:45 | 60.66927 | 70.35497 | 35908 ft | 460 kts | 301° |
| 2026-05-05 13:46 | 60.70324 | 70.24417 | 35891 ft | 460 kts | 301° |
| 2026-05-05 13:46 | 60.73735 | 70.13337 | 35891 ft | 460 kts | 301° |
| 2026-05-05 13:47 | 60.77127 | 70.02219 | 35891 ft | 460 kts | 301° |
| 2026-05-05 13:47 | 60.80503 | 69.91059 | 35895 ft | 460 kts | 301° |
| 2026-05-05 13:48 | 60.83821 | 69.79903 | 35894 ft | 460 kts | 300° |
| 2026-05-05 13:48 | 60.87118 | 69.68621 | 35904 ft | 460 kts | 300° |
| 2026-05-05 13:49 | 60.90406 | 69.57337 | 35889 ft | 460 kts | 300° |
| 2026-05-05 13:49 | 60.93687 | 69.46053 | 35889 ft | 460 kts | 300° |
| 2026-05-05 13:50 | 60.96938 | 69.34831 | 35884 ft | 458 kts | 300° |
| 2026-05-05 13:50 | 61.00179 | 69.23588 | 35883 ft | 456 kts | 300° |
| 2026-05-05 13:51 | 61.02925 | 69.11856 | 35885 ft | 455 kts | 288° |
| 2026-05-05 13:51 | 61.04246 | 68.99083 | 35887 ft | 456 kts | 279° |
| 2026-05-05 13:52 | 61.05132 | 68.86107 | 35886 ft | 457 kts | 278° |
| 2026-05-05 13:52 | 61.05944 | 68.73108 | 35881 ft | 457 kts | 278° |
| 2026-05-05 13:53 | 61.06761 | 68.60065 | 35891 ft | 457 kts | 278° |
| 2026-05-05 13:53 | 61.07576 | 68.47116 | 35887 ft | 457 kts | 278° |
| 2026-05-05 13:54 | 61.08390 | 68.34072 | 35887 ft | 457 kts | 278° |
| 2026-05-05 13:54 | 61.09190 | 68.21051 | 35889 ft | 456 kts | 278° |
| 2026-05-05 13:55 | 61.09976 | 68.08054 | 35888 ft | 455 kts | 278° |